sensor_id;sensor_type;location;lat;lon;timestamp;pressure;altitude;pressure_sealevel;temperature;humidity
67697;BME280;54486;51.442;6.778;2023-04-01T00:00:22;99120.72;;;10.03;100.00
67697;BME280;54486;51.442;6.778;2023-04-01T00:02:50;99114.59;;;10.04;100.00
67697;BME280;54486;51.442;6.778;2023-04-01T00:05:19;99113.56;;;10.09;100.00
67697;BME280;54486;51.442;6.778;2023-04-01T00:07:46;99107.31;;;10.15;100.00
67697;BME280;54486;51.442;6.778;2023-04-01T00:10:14;99104.78;;;10.14;100.00
67697;BME280;54486;51.442;6.778;2023-04-01T00:12:43;99110.06;;;10.10;100.00
67697;BME280;54486;51.442;6.778;2023-04-01T00:15:11;99115.31;;;10.09;100.00
67697;BME280;54486;51.442;6.778;2023-04-01T00:17:39;99110.91;;;10.11;100.00
67697;BME280;54486;51.442;6.778;2023-04-01T00:20:07;99111.84;;;10.08;100.00
67697;BME280;54486;51.442;6.778;2023-04-01T00:22:35;99106.72;;;10.05;100.00
67697;BME280;54486;51.442;6.778;2023-04-01T00:25:03;99110.16;;;10.07;100.00
67697;BME280;54486;51.442;6.778;2023-04-01T00:27:31;99117.31;;;10.01;100.00
67697;BME280;54486;51.442;6.778;2023-04-01T00:29:58;99109.22;;;10.08;100.00
67697;BME280;54486;51.442;6.778;2023-04-01T00:32:26;99108.34;;;10.09;100.00
67697;BME280;54486;51.442;6.778;2023-04-01T00:34:53;99110.25;;;10.04;100.00
67697;BME280;54486;51.442;6.778;2023-04-01T00:37:21;99116.38;;;10.02;100.00
67697;BME280;54486;51.442;6.778;2023-04-01T00:39:50;99108.63;;;10.00;100.00
67697;BME280;54486;51.442;6.778;2023-04-01T00:42:18;99112.22;;;9.96;100.00
67697;BME280;54486;51.442;6.778;2023-04-01T00:44:53;99115.88;;;9.91;100.00
67697;BME280;54486;51.442;6.778;2023-04-01T00:47:22;99112.22;;;9.96;100.00
67697;BME280;54486;51.442;6.778;2023-04-01T00:49:53;99110.44;;;9.98;100.00
67697;BME280;54486;51.442;6.778;2023-04-01T00:52:24;99108.78;;;9.96;100.00
67697;BME280;54486;51.442;6.778;2023-04-01T00:54:56;99103.44;;;10.00;100.00
67697;BME280;54486;51.442;6.778;2023-04-01T00:57:34;99107.97;;;9.94;100.00
67697;BME280;54486;51.442;6.778;2023-04-01T01:00:09;99100.28;;;9.89;100.00
67697;BME280;54486;51.442;6.778;2023-04-01T01:02:36;99108.00;;;9.92;100.00
67697;BME280;54486;51.442;6.778;2023-04-01T01:05:05;99105.50;;;9.89;100.00
67697;BME280;54486;51.442;6.778;2023-04-01T01:10:28;99095.00;;;9.92;100.00
67697;BME280;54486;51.442;6.778;2023-04-01T01:15:32;99095.94;;;9.90;100.00
67697;BME280;54486;51.442;6.778;2023-04-01T01:24:02;99091.41;;;9.96;100.00
67697;BME280;54486;51.442;6.778;2023-04-01T01:26:54;99081.06;;;9.93;100.00
67697;BME280;54486;51.442;6.778;2023-04-01T01:29:45;99092.16;;;10.00;100.00
67697;BME280;54486;51.442;6.778;2023-04-01T01:32:41;99084.50;;;9.95;100.00
67697;BME280;54486;51.442;6.778;2023-04-01T01:37:52;99087.16;;;9.92;100.00
67697;BME280;54486;51.442;6.778;2023-04-01T01:40:24;99077.19;;;10.06;100.00
67697;BME280;54486;51.442;6.778;2023-04-01T01:42:57;99084.50;;;9.95;100.00
67697;BME280;54486;51.442;6.778;2023-04-01T01:45:27;99082.69;;;9.97;100.00
67697;BME280;54486;51.442;6.778;2023-04-01T01:47:56;99092.25;;;9.97;100.00
67697;BME280;54486;51.442;6.778;2023-04-01T01:50:25;99079.84;;;10.05;100.00
67697;BME280;54486;51.442;6.778;2023-04-01T01:53:02;99072.16;;;10.00;100.00
67697;BME280;54486;51.442;6.778;2023-04-01T01:55:32;99087.78;;;10.00;100.00
67697;BME280;54486;51.442;6.778;2023-04-01T02:00:54;99089.50;;;10.01;100.00
67697;BME280;54486;51.442;6.778;2023-04-01T02:03:24;99091.75;;;10.12;100.00
67697;BME280;54486;51.442;6.778;2023-04-01T02:05:56;99093.78;;;10.04;100.00
67697;BME280;54486;51.442;6.778;2023-04-01T02:09:10;99094.91;;;9.95;100.00
67697;BME280;54486;51.442;6.778;2023-04-01T02:14:10;99095.00;;;9.92;100.00
67697;BME280;54486;51.442;6.778;2023-04-01T02:16:44;99098.66;;;9.87;100.00
67697;BME280;54486;51.442;6.778;2023-04-01T02:19:16;99098.63;;;9.88;100.00
67697;BME280;54486;51.442;6.778;2023-04-01T02:21:52;99097.84;;;9.85;100.00
67697;BME280;54486;51.442;6.778;2023-04-01T02:24:23;99103.06;;;9.85;100.00
67697;BME280;54486;51.442;6.778;2023-04-01T02:26:53;99107.50;;;9.81;100.00
67697;BME280;54486;51.442;6.778;2023-04-01T02:29:23;99116.13;;;9.83;100.00
67697;BME280;54486;51.442;6.778;2023-04-01T02:31:56;99121.41;;;9.80;100.00
67697;BME280;54486;51.442;6.778;2023-04-01T02:34:24;99127.66;;;9.76;100.00
67697;BME280;54486;51.442;6.778;2023-04-01T02:36:53;99116.38;;;9.76;100.00
67697;BME280;54486;51.442;6.778;2023-04-01T02:39:22;99115.59;;;9.72;100.00
67697;BME280;54486;51.442;6.778;2023-04-01T02:41:50;99114.78;;;9.70;100.00
67697;BME280;54486;51.442;6.778;2023-04-01T02:44:17;99114.84;;;9.69;100.00
67697;BME280;54486;51.442;6.778;2023-04-01T02:46:44;99120.06;;;9.69;100.00
67697;BME280;54486;51.442;6.778;2023-04-01T02:49:11;99121.91;;;9.65;100.00
67697;BME280;54486;51.442;6.778;2023-04-01T02:51:39;99119.31;;;9.64;100.00
67697;BME280;54486;51.442;6.778;2023-04-01T02:54:06;99121.19;;;9.60;100.00
67697;BME280;54486;51.442;6.778;2023-04-01T02:56:35;99120.38;;;9.58;100.00
67697;BME280;54486;51.442;6.778;2023-04-01T02:59:02;99116.88;;;9.59;100.00
67697;BME280;54486;51.442;6.778;2023-04-01T03:01:29;99120.38;;;9.58;100.00
67697;BME280;54486;51.442;6.778;2023-04-01T03:03:57;99119.56;;;9.56;100.00
67697;BME280;54486;51.442;6.778;2023-04-01T03:06:24;99120.34;;;9.60;100.00
67697;BME280;54486;51.442;6.778;2023-04-01T03:08:50;99124.78;;;9.56;100.00
67697;BME280;54486;51.442;6.778;2023-04-01T03:11:17;99122.84;;;9.63;100.00
67697;BME280;54486;51.442;6.778;2023-04-01T03:13:44;99129.00;;;9.60;100.00
67697;BME280;54486;51.442;6.778;2023-04-01T03:16:12;99122.78;;;9.64;100.00
67697;BME280;54486;51.442;6.778;2023-04-01T03:18:40;99148.13;;;9.59;100.00
67697;BME280;54486;51.442;6.778;2023-04-01T03:21:19;99135.81;;;9.64;100.00
67697;BME280;54486;51.442;6.778;2023-04-01T03:23:47;99133.28;;;9.61;100.00
67697;BME280;54486;51.442;6.778;2023-04-01T03:26:14;99130.69;;;9.61;100.00
67697;BME280;54486;51.442;6.778;2023-04-01T03:28:42;99133.25;;;9.63;100.00
67697;BME280;54486;51.442;6.778;2023-04-01T03:31:10;99134.22;;;9.60;100.00
67697;BME280;54486;51.442;6.778;2023-04-01T03:33:38;99131.59;;;9.60;100.00
67697;BME280;54486;51.442;6.778;2023-04-01T03:36:06;99136.00;;;9.58;100.00
67697;BME280;54486;51.442;6.778;2023-04-01T03:38:35;99133.94;;;9.69;100.00
67697;BME280;54486;51.442;6.778;2023-04-01T03:41:04;99137.63;;;9.62;100.00
67697;BME280;54486;51.442;6.778;2023-04-01T03:43:33;99135.00;;;9.62;100.00
67697;BME280;54486;51.442;6.778;2023-04-01T03:46:01;99139.13;;;9.69;100.00
67697;BME280;54486;51.442;6.778;2023-04-01T03:48:29;99144.44;;;9.66;100.00
67697;BME280;54486;51.442;6.778;2023-04-01T03:50:56;99142.72;;;9.65;100.00
67697;BME280;54486;51.442;6.778;2023-04-01T03:53:24;99141.88;;;9.65;100.00
67697;BME280;54486;51.442;6.778;2023-04-01T03:55:51;99142.81;;;9.62;100.00
67697;BME280;54486;51.442;6.778;2023-04-01T03:58:18;99144.44;;;9.66;100.00
67697;BME280;54486;51.442;6.778;2023-04-01T04:00:46;99135.81;;;9.64;100.00
67697;BME280;54486;51.442;6.778;2023-04-01T04:03:14;99152.25;;;9.66;100.00
67697;BME280;54486;51.442;6.778;2023-04-01T04:05:47;99141.09;;;9.61;100.00
67697;BME280;54486;51.442;6.778;2023-04-01T04:08:16;99137.53;;;9.65;100.00
67697;BME280;54486;51.442;6.778;2023-04-01T04:10:43;99142.53;;;9.71;100.00
67697;BME280;54486;51.442;6.778;2023-04-01T04:13:14;99153.94;;;9.67;100.00
67697;BME280;54486;51.442;6.778;2023-04-01T04:15:41;99152.19;;;9.68;100.00
67697;BME280;54486;51.442;6.778;2023-04-01T04:18:08;99159.06;;;9.70;100.00
67697;BME280;54486;51.442;6.778;2023-04-01T04:20:35;99153.16;;;9.65;100.00
67697;BME280;54486;51.442;6.778;2023-04-01T04:23:03;99154.94;;;9.63;100.00
67697;BME280;54486;51.442;6.778;2023-04-01T04:25:31;99148.03;;;9.62;100.00
67697;BME280;54486;51.442;6.778;2023-04-01T04:27:58;99162.59;;;9.68;100.00
67697;BME280;54486;51.442;6.778;2023-04-01T04:30:25;99165.09;;;9.72;100.00
67697;BME280;54486;51.442;6.778;2023-04-01T04:32:52;99165.22;;;9.68;100.00
67697;BME280;54486;51.442;6.778;2023-04-01T04:35:20;99158.34;;;9.65;100.00
67697;BME280;54486;51.442;6.778;2023-04-01T04:37:47;99161.72;;;9.69;100.00
67697;BME280;54486;51.442;6.778;2023-04-01T04:40:14;99158.34;;;9.65;100.00
67697;BME280;54486;51.442;6.778;2023-04-01T04:42:45;99165.19;;;9.69;100.00
67697;BME280;54486;51.442;6.778;2023-04-01T04:45:12;99165.19;;;9.69;100.00
67697;BME280;54486;51.442;6.778;2023-04-01T04:47:39;99160.06;;;9.66;100.00
67697;BME280;54486;51.442;6.778;2023-04-01T04:50:07;99167.72;;;9.71;100.00
67697;BME280;54486;51.442;6.778;2023-04-01T04:52:34;99164.34;;;9.67;100.00
67697;BME280;54486;51.442;6.778;2023-04-01T04:55:01;99165.28;;;9.66;100.00
67697;BME280;54486;51.442;6.778;2023-04-01T04:57:27;99166.97;;;9.67;100.00
67697;BME280;54486;51.442;6.778;2023-04-01T04:59:55;99172.16;;;9.67;100.00
67697;BME280;54486;51.442;6.778;2023-04-01T05:02:22;99172.16;;;9.67;100.00
67697;BME280;54486;51.442;6.778;2023-04-01T05:04:49;99184.38;;;9.65;100.00
67697;BME280;54486;51.442;6.778;2023-04-01T05:07:17;99178.31;;;9.65;100.00
67697;BME280;54486;51.442;6.778;2023-04-01T05:09:43;99181.00;;;9.63;100.00
67697;BME280;54486;51.442;6.778;2023-04-01T05:12:13;99178.38;;;9.63;100.00
67697;BME280;54486;51.442;6.778;2023-04-01T05:14:40;99177.47;;;9.64;100.00
67697;BME280;54486;51.442;6.778;2023-04-01T05:17:11;99177.47;;;9.64;100.00
67697;BME280;54486;51.442;6.778;2023-04-01T05:19:39;99187.19;;;9.59;100.00
67697;BME280;54486;51.442;6.778;2023-04-01T05:22:06;99186.19;;;9.63;100.00
67697;BME280;54486;51.442;6.778;2023-04-01T05:24:33;99189.69;;;9.62;100.00
67697;BME280;54486;51.442;6.778;2023-04-01T05:27:01;99193.09;;;9.64;100.00
67697;BME280;54486;51.442;6.778;2023-04-01T05:29:28;99181.88;;;9.62;100.00
67697;BME280;54486;51.442;6.778;2023-04-01T05:31:56;99187.97;;;9.61;100.00
67697;BME280;54486;51.442;6.778;2023-04-01T05:34:23;99190.53;;;9.63;100.00
67697;BME280;54486;51.442;6.778;2023-04-01T05:36:49;99193.16;;;9.63;100.00
67697;BME280;54486;51.442;6.778;2023-04-01T05:39:16;99194.00;;;9.63;100.00
67697;BME280;54486;51.442;6.778;2023-04-01T05:41:43;99190.47;;;9.66;100.00
67697;BME280;54486;51.442;6.778;2023-04-01T05:44:12;99196.47;;;9.68;100.00
67697;BME280;54486;51.442;6.778;2023-04-01T05:46:39;99200.88;;;9.66;100.00
67697;BME280;54486;51.442;6.778;2023-04-01T05:49:06;99196.53;;;9.66;100.00
67697;BME280;54486;51.442;6.778;2023-04-01T05:51:33;99204.25;;;9.69;100.00
67697;BME280;54486;51.442;6.778;2023-04-01T05:54:00;99199.13;;;9.66;100.00
67697;BME280;54486;51.442;6.778;2023-04-01T05:56:27;99207.72;;;9.70;100.00
67697;BME280;54486;51.442;6.778;2023-04-01T05:58:54;99214.69;;;9.68;100.00
67697;BME280;54486;51.442;6.778;2023-04-01T06:01:22;99210.44;;;9.65;100.00
67697;BME280;54486;51.442;6.778;2023-04-01T06:03:49;99202.59;;;9.67;100.00
67697;BME280;54486;51.442;6.778;2023-04-01T06:06:25;99206.13;;;9.64;100.00
67697;BME280;54486;51.442;6.778;2023-04-01T06:08:56;99215.56;;;9.68;100.00
67697;BME280;54486;51.442;6.778;2023-04-01T06:17:34;99212.16;;;9.66;100.00
67697;BME280;54486;51.442;6.778;2023-04-01T06:20:11;99223.38;;;9.68;100.00
67697;BME280;54486;51.442;6.778;2023-04-01T06:23:05;99225.16;;;9.66;100.00
67697;BME280;54486;51.442;6.778;2023-04-01T06:30:52;99220.66;;;9.71;100.00
67697;BME280;54486;51.442;6.778;2023-04-01T06:33:52;99232.97;;;9.66;100.00
67697;BME280;54486;51.442;6.778;2023-04-01T06:39:58;99226.81;;;9.69;100.00
67697;BME280;54486;51.442;6.778;2023-04-01T06:45:06;99238.09;;;9.69;100.00
67697;BME280;54486;51.442;6.778;2023-04-01T06:50:35;99232.81;;;9.72;100.00
67697;BME280;54486;51.442;6.778;2023-04-01T06:53:12;99241.50;;;9.71;100.00
67697;BME280;54486;51.442;6.778;2023-04-01T06:55:55;99239.78;;;9.70;100.00
67697;BME280;54486;51.442;6.778;2023-04-01T07:01:10;99248.34;;;9.75;100.00
67697;BME280;54486;51.442;6.778;2023-04-01T07:03:44;99245.75;;;9.75;100.00
67697;BME280;54486;51.442;6.778;2023-04-01T07:06:35;99256.00;;;9.80;100.00
67697;BME280;54486;51.442;6.778;2023-04-01T07:09:11;99269.00;;;9.81;100.00
67697;BME280;54486;51.442;6.778;2023-04-01T07:11:40;99256.94;;;9.77;100.00
67697;BME280;54486;51.442;6.778;2023-04-01T07:16:49;99257.91;;;9.75;100.00
67697;BME280;54486;51.442;6.778;2023-04-01T07:19:30;99269.94;;;9.79;100.00
67697;BME280;54486;51.442;6.778;2023-04-01T07:22:28;99277.94;;;9.73;100.00
67697;BME280;54486;51.442;6.778;2023-04-01T07:25:02;99271.88;;;9.72;100.00
67697;BME280;54486;51.442;6.778;2023-04-01T07:27:29;99273.53;;;9.75;100.00
67697;BME280;54486;51.442;6.778;2023-04-01T07:29:57;99279.63;;;9.74;100.00
67697;BME280;54486;51.442;6.778;2023-04-01T07:32:45;99281.53;;;9.67;100.00
67697;BME280;54486;51.442;6.778;2023-04-01T07:35:26;99284.97;;;9.69;100.00
67697;BME280;54486;51.442;6.778;2023-04-01T07:41:06;99291.78;;;9.73;100.00
67697;BME280;54486;51.442;6.778;2023-04-01T07:46:23;99295.22;;;9.75;100.00
67697;BME280;54486;51.442;6.778;2023-04-01T07:49:08;99301.28;;;9.76;100.00
67697;BME280;54486;51.442;6.778;2023-04-01T07:55:14;99308.25;;;9.75;100.00
67697;BME280;54486;51.442;6.778;2023-04-01T07:58:20;99315.28;;;9.72;100.00
67697;BME280;54486;51.442;6.778;2023-04-01T08:03:35;99320.44;;;9.73;100.00
67697;BME280;54486;51.442;6.778;2023-04-01T08:06:27;99318.75;;;9.72;100.00
67697;BME280;54486;51.442;6.778;2023-04-01T08:09:10;99329.88;;;9.77;100.00
67697;BME280;54486;51.442;6.778;2023-04-01T08:12:02;99328.03;;;9.82;100.00
67697;BME280;54486;51.442;6.778;2023-04-01T08:20:27;99341.75;;;9.87;100.00
67697;BME280;54486;51.442;6.778;2023-04-01T08:23:19;99359.88;;;9.92;100.00
67697;BME280;54486;51.442;6.778;2023-04-01T08:28:41;99355.38;;;9.98;100.00
67697;BME280;54486;51.442;6.778;2023-04-01T08:31:18;99350.28;;;9.92;100.00
67697;BME280;54486;51.442;6.778;2023-04-01T08:33:53;99363.97;;;10.00;100.00
67697;BME280;54486;51.442;6.778;2023-04-01T08:39:17;99366.63;;;9.99;100.00
67697;BME280;54486;51.442;6.778;2023-04-01T08:56:12;99373.59;;;9.98;100.00
67697;BME280;54486;51.442;6.778;2023-04-01T09:10:24;99397.47;;;10.16;100.00
67697;BME280;54486;51.442;6.778;2023-04-01T09:27:27;99409.50;;;10.50;100.00
67697;BME280;54486;51.442;6.778;2023-04-01T09:38:22;99420.22;;;10.71;100.00
67697;BME280;54486;51.442;6.778;2023-04-01T09:44:28;99429.88;;;10.67;100.00
67697;BME280;54486;51.442;6.778;2023-04-01T09:57:51;99444.16;;;10.54;100.00
67697;BME280;54486;51.442;6.778;2023-04-01T10:06:06;99451.19;;;10.52;100.00
67697;BME280;54486;51.442;6.778;2023-04-01T10:23:38;99466.22;;;10.73;100.00
67697;BME280;54486;51.442;6.778;2023-04-01T10:31:49;99477.63;;;10.69;100.00
67697;BME280;54486;51.442;6.778;2023-04-01T10:40:15;99473.44;;;10.65;100.00
67697;BME280;54486;51.442;6.778;2023-04-01T10:48:10;99477.41;;;10.77;100.00
67697;BME280;54486;51.442;6.778;2023-04-01T10:56:32;99497.88;;;10.61;100.00
67697;BME280;54486;51.442;6.778;2023-04-01T11:02:28;99494.28;;;10.65;100.00
67697;BME280;54486;51.442;6.778;2023-04-01T11:08:05;99511.53;;;10.69;100.00
67697;BME280;54486;51.442;6.778;2023-04-01T11:27:49;99523.34;;;10.82;100.00
67697;BME280;54486;51.442;6.778;2023-04-01T11:30:24;99523.34;;;10.82;100.00
67697;BME280;54486;51.442;6.778;2023-04-01T11:33:05;99524.19;;;10.84;100.00
67697;BME280;54486;51.442;6.778;2023-04-01T11:41:43;99541.69;;;10.79;100.00
67697;BME280;54486;51.442;6.778;2023-04-01T11:44:18;99544.47;;;10.73;100.00
67697;BME280;54486;51.442;6.778;2023-04-01T11:53:07;99556.38;;;10.83;100.00
67697;BME280;54486;51.442;6.778;2023-04-01T12:10:19;99580.56;;;10.88;100.00
67697;BME280;54486;51.442;6.778;2023-04-01T12:13:30;99579.56;;;10.94;100.00
67697;BME280;54486;51.442;6.778;2023-04-01T12:21:29;99580.81;;;11.41;100.00
67697;BME280;54486;51.442;6.778;2023-04-01T12:32:56;99597.56;;;11.34;100.00
67697;BME280;54486;51.442;6.778;2023-04-01T12:36:04;99610.06;;;11.23;100.00
67697;BME280;54486;51.442;6.778;2023-04-01T12:41:54;99611.31;;;11.09;100.00
67697;BME280;54486;51.442;6.778;2023-04-01T12:53:06;99625.53;;;10.99;100.00
67697;BME280;54486;51.442;6.778;2023-04-01T12:55:45;99632.38;;;11.03;100.00
67697;BME280;54486;51.442;6.778;2023-04-01T13:06:57;99645.00;;;10.86;100.00
67697;BME280;54486;51.442;6.778;2023-04-01T13:09:43;99647.59;;;10.88;100.00
67697;BME280;54486;51.442;6.778;2023-04-01T13:15:28;99653.81;;;10.82;100.00
67697;BME280;54486;51.442;6.778;2023-04-01T13:18:17;99665.09;;;10.84;100.00
67697;BME280;54486;51.442;6.778;2023-04-01T13:21:17;99667.84;;;10.78;100.00
67697;BME280;54486;51.442;6.778;2023-04-01T13:26:28;99667.00;;;10.78;100.00
67697;BME280;54486;51.442;6.778;2023-04-01T13:34:51;99675.16;;;10.64;100.00
67697;BME280;54486;51.442;6.778;2023-04-01T13:42:41;99673.34;;;10.68;100.00
67697;BME280;54486;51.442;6.778;2023-04-01T13:45:22;99678.72;;;10.60;100.00
67697;BME280;54486;51.442;6.778;2023-04-01T13:50:31;99682.09;;;10.65;100.00
67697;BME280;54486;51.442;6.778;2023-04-01T13:56:08;99680.53;;;10.58;100.00
67697;BME280;54486;51.442;6.778;2023-04-01T14:09:51;99706.47;;;10.64;100.00
67697;BME280;54486;51.442;6.778;2023-04-01T14:12:29;99706.31;;;10.70;100.00
67697;BME280;54486;51.442;6.778;2023-04-01T14:17:50;99715.03;;;10.69;100.00
67697;BME280;54486;51.442;6.778;2023-04-01T14:23:13;99720.25;;;10.69;100.00
67697;BME280;54486;51.442;6.778;2023-04-01T14:26:02;99723.59;;;10.74;100.00
67697;BME280;54486;51.442;6.778;2023-04-01T14:31:39;99726.31;;;10.70;100.00
67697;BME280;54486;51.442;6.778;2023-04-01T14:34:39;99732.31;;;10.73;100.00
67697;BME280;54486;51.442;6.778;2023-04-01T14:37:23;99730.59;;;10.72;100.00
67697;BME280;54486;51.442;6.778;2023-04-01T14:48:52;99755.28;;;10.59;100.00
67697;BME280;54486;51.442;6.778;2023-04-01T14:51:36;99750.91;;;10.59;100.00
67697;BME280;54486;51.442;6.778;2023-04-01T14:56:49;99753.50;;;10.61;100.00
67697;BME280;54486;51.442;6.778;2023-04-01T15:13:13;99776.16;;;10.59;100.00
67697;BME280;54486;51.442;6.778;2023-04-01T15:24:11;99790.16;;;10.55;100.00
67697;BME280;54486;51.442;6.778;2023-04-01T15:26:47;99790.16;;;10.55;100.00
67697;BME280;54486;51.442;6.778;2023-04-01T15:32:14;99802.25;;;10.59;100.00
67697;BME280;54486;51.442;6.778;2023-04-01T15:34:54;99798.78;;;10.57;100.00
67697;BME280;54486;51.442;6.778;2023-04-01T15:37:55;99796.97;;;10.62;100.00
67697;BME280;54486;51.442;6.778;2023-04-01T15:59:41;99820.72;;;10.85;100.00
67697;BME280;54486;51.442;6.778;2023-04-01T16:02:39;99835.28;;;10.95;100.00
67697;BME280;54486;51.442;6.778;2023-04-01T16:20:44;99851.97;;;10.88;100.00
67697;BME280;54486;51.442;6.778;2023-04-01T16:26:52;99858.31;;;10.78;100.00
67697;BME280;54486;51.442;6.778;2023-04-01T16:29:33;99854.13;;;10.71;100.00
67697;BME280;54486;51.442;6.778;2023-04-01T16:40:45;99867.38;;;10.62;100.00
67697;BME280;54486;51.442;6.778;2023-04-01T16:43:24;99876.97;;;10.60;100.00
67697;BME280;54486;51.442;6.778;2023-04-01T17:00:14;99903.25;;;10.51;100.00
67697;BME280;54486;51.442;6.778;2023-04-01T17:02:48;99901.53;;;10.50;100.00
67697;BME280;54486;51.442;6.778;2023-04-01T17:05:17;99908.47;;;10.51;100.00
67697;BME280;54486;51.442;6.778;2023-04-01T17:25:12;99931.25;;;10.43;100.00
67697;BME280;54486;51.442;6.778;2023-04-01T17:33:28;99940.84;;;10.41;100.00
67697;BME280;54486;51.442;6.778;2023-04-01T17:58:19;99985.34;;;10.32;100.00
67697;BME280;54486;51.442;6.778;2023-04-01T18:01:07;99989.75;;;10.30;100.00
67697;BME280;54486;51.442;6.778;2023-04-01T18:06:20;99990.63;;;10.29;100.00
67697;BME280;54486;51.442;6.778;2023-04-01T18:11:59;100011.56;;;10.26;100.00
67697;BME280;54486;51.442;6.778;2023-04-01T18:14:54;100008.06;;;10.27;100.00
67697;BME280;54486;51.442;6.778;2023-04-01T18:23:09;100023.72;;;10.27;100.00
67697;BME280;54486;51.442;6.778;2023-04-01T18:25:44;100030.72;;;10.22;100.00
67697;BME280;54486;51.442;6.778;2023-04-01T18:33:46;100042.91;;;10.21;100.00
67697;BME280;54486;51.442;6.778;2023-04-01T18:36:24;100036.06;;;10.16;100.00
67697;BME280;54486;51.442;6.778;2023-04-01T18:41:44;100050.00;;;10.15;100.00
67697;BME280;54486;51.442;6.778;2023-04-01T18:52:41;100064.78;;;10.14;100.00
67697;BME280;54486;51.442;6.778;2023-04-01T18:55:40;100058.69;;;10.14;100.00
67697;BME280;54486;51.442;6.778;2023-04-01T18:58:23;100063.81;;;10.20;100.00
67697;BME280;54486;51.442;6.778;2023-04-01T19:04:03;100069.16;;;10.10;100.00
67697;BME280;54486;51.442;6.778;2023-04-01T19:06:44;100090.00;;;10.10;100.00
67697;BME280;54486;51.442;6.778;2023-04-01T19:09:21;100081.25;;;10.16;100.00
67697;BME280;54486;51.442;6.778;2023-04-01T19:12:09;100086.50;;;10.15;100.00
67697;BME280;54486;51.442;6.778;2023-04-01T19:17:48;100104.66;;;10.19;100.00
67697;BME280;54486;51.442;6.778;2023-04-01T19:20:28;100112.47;;;10.21;100.00
67697;BME280;54486;51.442;6.778;2023-04-01T19:23:17;100114.19;;;10.20;100.00
67697;BME280;54486;51.442;6.778;2023-04-01T19:25:55;100117.69;;;10.21;100.00
67697;BME280;54486;51.442;6.778;2023-04-01T19:28:52;100117.69;;;10.21;100.00
67697;BME280;54486;51.442;6.778;2023-04-01T19:34:31;100129.81;;;10.22;100.00
67697;BME280;54486;51.442;6.778;2023-04-01T19:37:14;100135.06;;;10.19;100.00
67697;BME280;54486;51.442;6.778;2023-04-01T19:40:49;100138.59;;;10.18;100.00
67697;BME280;54486;51.442;6.778;2023-04-01T19:46:19;100149.06;;;10.15;100.00
67697;BME280;54486;51.442;6.778;2023-04-01T19:51:37;100162.97;;;10.10;100.00
67697;BME280;54486;51.442;6.778;2023-04-01T19:59:39;100177.03;;;10.00;100.00
67697;BME280;54486;51.442;6.778;2023-04-01T20:04:40;100187.47;;;10.00;100.00
67697;BME280;54486;51.442;6.778;2023-04-01T20:13:00;100210.13;;;9.92;100.00
67697;BME280;54486;51.442;6.778;2023-04-01T20:15:31;100220.56;;;9.92;100.00
67697;BME280;54486;51.442;6.778;2023-04-01T20:18:19;100222.38;;;9.87;100.00
67697;BME280;54486;51.442;6.778;2023-04-01T20:20:56;100232.03;;;9.81;100.00
67697;BME280;54486;51.442;6.778;2023-04-01T20:23:46;100241.63;;;9.77;100.00
67697;BME280;54486;51.442;6.778;2023-04-01T20:26:21;100241.69;;;9.71;100.00
67697;BME280;54486;51.442;6.778;2023-04-01T20:31:40;100260.81;;;9.70;100.00
67697;BME280;54486;51.442;6.778;2023-04-01T20:37:25;100273.06;;;9.62;100.00
67697;BME280;54486;51.442;6.778;2023-04-01T20:40:20;100283.56;;;9.56;100.00
67697;BME280;54486;51.442;6.778;2023-04-01T20:50:35;100300.13;;;9.49;100.00
67697;BME280;54486;51.442;6.778;2023-04-01T20:53:42;100302.75;;;9.46;100.00
67697;BME280;54486;51.442;6.778;2023-04-01T20:59:22;100312.41;;;9.38;100.00
67697;BME280;54486;51.442;6.778;2023-04-01T21:02:32;100324.63;;;9.30;100.00
67697;BME280;54486;51.442;6.778;2023-04-01T21:10:40;100341.19;;;9.20;100.00
67697;BME280;54486;51.442;6.778;2023-04-01T21:16:15;100351.66;;;9.14;100.00
67697;BME280;54486;51.442;6.778;2023-04-01T21:28:09;100381.28;;;8.97;100.00
67697;BME280;54486;51.442;6.778;2023-04-01T21:33:50;100385.66;;;8.91;100.00
67697;BME280;54486;51.442;6.778;2023-04-01T22:07:02;100455.22;;;8.57;100.00
67697;BME280;54486;51.442;6.778;2023-04-01T22:10:19;100463.06;;;8.54;100.00
67697;BME280;54486;51.442;6.778;2023-04-01T22:21:32;100491.69;;;8.40;100.00
67697;BME280;54486;51.442;6.778;2023-04-01T22:24:03;100492.56;;;8.38;100.00
67697;BME280;54486;51.442;6.778;2023-04-01T22:26:44;100503.84;;;8.35;100.00
67697;BME280;54486;51.442;6.778;2023-04-01T22:29:32;100504.69;;;8.43;100.00
67697;BME280;54486;51.442;6.778;2023-04-01T22:32:12;100507.28;;;8.27;100.00
67697;BME280;54486;51.442;6.778;2023-04-01T22:34:47;100521.16;;;8.21;100.00
67697;BME280;54486;51.442;6.778;2023-04-01T22:42:46;100535.91;;;8.12;100.00
67697;BME280;54486;51.442;6.778;2023-04-01T22:45:48;100539.38;;;8.08;100.00
67697;BME280;54486;51.442;6.778;2023-04-01T22:48:35;100548.06;;;8.07;100.00
67697;BME280;54486;51.442;6.778;2023-04-01T22:51:18;100554.97;;;8.05;100.00
67697;BME280;54486;51.442;6.778;2023-04-01T22:53:57;100561.88;;;8.04;100.00
67697;BME280;54486;51.442;6.778;2023-04-01T22:56:35;100574.03;;;8.04;100.00
67697;BME280;54486;51.442;6.778;2023-04-01T22:59:20;100572.28;;;7.99;100.00
67697;BME280;54486;51.442;6.778;2023-04-01T23:02:11;100580.94;;;7.95;100.00
67697;BME280;54486;51.442;6.778;2023-04-01T23:04:43;100592.22;;;7.97;100.00
67697;BME280;54486;51.442;6.778;2023-04-01T23:09:54;100591.34;;;7.77;100.00
67697;BME280;54486;51.442;6.778;2023-04-01T23:12:24;100605.19;;;7.76;100.00
67697;BME280;54486;51.442;6.778;2023-04-01T23:14:56;100610.38;;;7.79;100.00
67697;BME280;54486;51.442;6.778;2023-04-01T23:17:49;100615.56;;;7.79;100.00
67697;BME280;54486;51.442;6.778;2023-04-01T23:20:32;100624.25;;;7.75;100.00
67697;BME280;54486;51.442;6.778;2023-04-01T23:28:52;100632.88;;;7.74;100.00